createdAt,value
2018-09-06T01:17:12.003Z,13.00
2018-09-06T01:20:37.820Z,14.17
2018-09-06T03:23:31.785Z,31.73
2018-09-06T03:29:00.565Z,27.23
2018-09-06T03:31:38.372Z,25.10
2018-09-06T03:42:27.332Z,24.90
2018-09-06T03:45:12.170Z,20.83
2018-09-06T03:47:52.736Z,20.13
2018-09-06T04:01:47.889Z,17.83
2018-09-06T04:07:01.829Z,17.97
2018-09-06T04:26:37.171Z,21.20
2018-09-06T04:40:09.304Z,36.07
2018-09-06T04:42:46.434Z,34.23
2018-09-06T04:45:27.586Z,35.57
2018-09-06T04:48:08.967Z,33.43
2018-09-06T04:50:49.115Z,31.67
2018-09-06T04:56:03.917Z,32.57
2018-09-06T04:58:45.442Z,34.63
2018-09-06T05:01:21.186Z,32.77
2018-09-06T05:04:03.149Z,35.63
2018-09-06T05:17:38.472Z,17.90
2018-09-06T05:20:59.529Z,14.20
2018-09-06T06:26:40.898Z,30.30
2018-09-06T06:40:19.723Z,28.67
2018-09-06T06:42:58.431Z,28.43
2018-09-06T06:51:29.886Z,27.93
2018-09-06T11:04:28.173Z,7.70
2018-09-06T12:16:44.489Z,8.03
2018-09-06T13:28:00.250Z,7.40
2018-09-06T13:30:28.531Z,6.73
2018-09-06T13:32:58.981Z,7.33
2018-09-06T13:35:28.442Z,7.40
2018-09-06T13:37:56.770Z,7.20
2018-09-06T13:40:25.089Z,6.70
2018-09-06T13:42:53.479Z,7.00
2018-09-06T13:45:21.883Z,6.93
2018-09-06T13:47:50.198Z,6.63
2018-09-06T13:50:18.538Z,6.77
2018-09-06T13:52:46.918Z,7.10
2018-09-06T13:55:15.251Z,7.43
2018-09-06T13:57:43.596Z,7.30
2018-09-06T14:00:11.988Z,7.10
2018-09-06T14:02:40.297Z,7.03
2018-09-06T14:05:10.262Z,7.13
2018-09-06T14:07:38.498Z,7.90
2018-09-06T14:10:06.884Z,7.10
2018-09-06T14:12:35.164Z,7.40
2018-09-06T14:16:47.242Z,7.03
2018-09-06T16:16:40.256Z,8.13
2018-09-06T16:19:09.339Z,8.27
2018-09-06T17:13:07.198Z,10.67
2018-09-06T17:15:35.531Z,10.87
2018-09-06T17:18:03.871Z,11.03
2018-09-06T17:20:32.285Z,11.63
2018-09-06T18:20:21.202Z,13.40
2018-09-06T18:22:49.786Z,13.17
2018-09-06T18:25:22.619Z,13.63
2018-09-06T18:27:50.943Z,13.83
2018-09-06T18:30:19.382Z,12.97
2018-09-06T18:32:47.788Z,13.83
2018-09-06T18:35:16.558Z,13.20
2018-09-06T18:37:44.853Z,13.87
2018-09-06T18:40:13.222Z,14.20
2018-09-06T18:42:41.550Z,13.37
2018-09-06T18:45:09.924Z,13.03
2018-09-06T18:47:42.663Z,13.83
2018-09-06T18:50:22.442Z,13.50
2018-09-06T18:52:50.727Z,13.63
2018-09-06T18:55:19.038Z,14.67
2018-09-06T18:57:47.330Z,13.33
2018-09-06T19:00:15.677Z,13.50
2018-09-06T19:02:43.939Z,13.80
2018-09-06T19:05:12.311Z,13.03
2018-09-06T19:07:40.596Z,13.97
2018-09-06T19:10:08.894Z,14.10
2018-09-06T21:13:23.174Z,15.03
2018-09-06T22:13:30.699Z,16.10
2018-09-06T22:19:11.004Z,16.67
2018-09-06T22:21:46.123Z,16.77
2018-09-06T22:24:14.496Z,17.17
